createdAt,value
2017-08-29T00:00:16.356Z,19.20
2017-08-29T00:02:44.679Z,19.20
2017-08-29T00:05:13.019Z,19.10
2017-08-29T00:07:41.314Z,19.10
2017-08-29T00:10:09.640Z,19.10
2017-08-29T00:12:37.970Z,19.10
2017-08-29T00:15:06.266Z,19.10
2017-08-29T00:17:34.601Z,19.10
2017-08-29T00:20:02.904Z,19.00
2017-08-29T00:22:31.223Z,19.00
2017-08-29T00:24:59.551Z,18.90
2017-08-29T00:27:27.847Z,19.00
2017-08-29T00:29:56.170Z,18.90
2017-08-29T00:32:24.502Z,19.00
2017-08-29T00:34:52.793Z,19.00
2017-08-29T00:37:21.166Z,19.00
2017-08-29T00:39:49.476Z,19.00
2017-08-29T00:42:17.797Z,19.00
2017-08-29T00:44:46.136Z,18.90
2017-08-29T00:47:14.434Z,18.90
2017-08-29T00:49:42.738Z,18.90
2017-08-29T00:52:11.090Z,18.90
2017-08-29T00:54:39.395Z,18.90
2017-08-29T00:57:07.716Z,18.80
2017-08-29T00:59:36.065Z,18.80
2017-08-29T01:02:04.366Z,18.80
2017-08-29T01:04:32.662Z,18.80
2017-08-29T01:07:00.985Z,18.70
2017-08-29T01:09:29.283Z,18.70
2017-08-29T01:11:57.616Z,18.70
2017-08-29T01:14:25.906Z,18.70
2017-08-29T01:16:54.205Z,18.70
2017-08-29T01:19:22.534Z,18.60
2017-08-29T01:21:50.856Z,18.60
2017-08-29T01:24:19.162Z,18.60
2017-08-29T01:26:47.504Z,18.60
2017-08-29T01:29:15.798Z,18.50
2017-08-29T01:31:44.092Z,18.60
2017-08-29T01:37:22.785Z,18.50
2017-08-29T01:39:51.108Z,18.50
2017-08-29T01:42:19.417Z,18.50
2017-08-29T01:44:47.744Z,18.50
2017-08-29T01:47:16.037Z,18.50
2017-08-29T01:49:44.377Z,18.50
2017-08-29T01:52:12.719Z,18.50
2017-08-29T01:54:41.012Z,18.40
2017-08-29T01:57:09.359Z,18.40
2017-08-29T01:59:37.654Z,18.40
2017-08-29T02:02:05.985Z,18.40
2017-08-29T02:04:34.369Z,18.40
2017-08-29T02:07:02.689Z,18.40
2017-08-29T02:09:30.980Z,18.40
2017-08-29T02:11:59.325Z,18.40
2017-08-29T02:14:27.624Z,18.40
2017-08-29T02:16:55.946Z,18.40
2017-08-29T02:19:24.283Z,18.30
2017-08-29T02:21:52.582Z,18.30
2017-08-29T02:24:20.879Z,18.30
2017-08-29T02:26:49.213Z,18.30
2017-08-29T02:29:17.517Z,18.20
2017-08-29T02:31:45.815Z,18.20
2017-08-29T02:34:14.147Z,18.20
2017-08-29T02:36:42.443Z,18.20
2017-08-29T02:39:10.815Z,18.10
2017-08-29T02:41:39.210Z,18.10
2017-08-29T02:44:07.513Z,18.00
2017-08-29T02:46:35.825Z,18.00
2017-08-29T02:49:04.206Z,18.00
2017-08-29T02:51:32.518Z,18.00
2017-08-29T02:54:00.843Z,17.90
2017-08-29T02:56:29.198Z,17.90
2017-08-29T02:58:57.496Z,17.90
2017-08-29T03:01:25.791Z,17.80
2017-08-29T03:03:54.141Z,17.80
2017-08-29T03:06:22.461Z,17.80
2017-08-29T03:08:50.786Z,17.70
2017-08-29T03:11:19.118Z,17.70
2017-08-29T03:13:47.420Z,17.70
2017-08-29T03:16:15.717Z,17.60
2017-08-29T03:18:44.050Z,17.60
2017-08-29T03:21:12.371Z,17.60
2017-08-29T03:23:40.670Z,17.60
2017-08-29T03:26:09.002Z,17.60
2017-08-29T03:28:37.305Z,17.60
2017-08-29T03:31:05.646Z,17.60
2017-08-29T03:33:33.998Z,17.60
2017-08-29T03:36:02.323Z,17.50
2017-08-29T03:38:30.648Z,17.50
2017-08-29T03:40:58.965Z,17.50
2017-08-29T03:43:27.301Z,17.50
2017-08-29T03:45:55.610Z,17.50
2017-08-29T03:48:23.916Z,17.40
2017-08-29T03:50:52.245Z,17.40
2017-08-29T03:53:20.581Z,17.30
2017-08-29T03:55:48.890Z,17.30
2017-08-29T03:58:17.235Z,17.30
2017-08-29T04:00:45.574Z,17.40
2017-08-29T04:03:13.903Z,17.30
2017-08-29T04:05:42.297Z,17.30
2017-08-29T04:08:10.619Z,17.30
2017-08-29T04:10:38.920Z,17.30
2017-08-29T04:15:41.281Z,17.30
2017-08-29T04:18:09.593Z,17.30
2017-08-29T04:20:37.898Z,17.20
2017-08-29T04:23:06.237Z,17.20
2017-08-29T04:25:34.574Z,17.10
2017-08-29T04:28:02.878Z,17.10
2017-08-29T04:30:31.241Z,17.10
2017-08-29T04:32:59.536Z,17.10
2017-08-29T04:35:27.876Z,17.00
2017-08-29T04:37:56.258Z,17.00
2017-08-29T04:40:24.553Z,17.10
2017-08-29T04:42:52.854Z,17.00
2017-08-29T04:45:21.195Z,17.00
2017-08-29T04:47:49.487Z,17.00
2017-08-29T04:50:17.781Z,17.00
2017-08-29T04:52:46.106Z,17.00
2017-08-29T04:55:14.439Z,17.00
2017-08-29T04:57:42.766Z,17.00
2017-08-29T05:00:11.110Z,17.00
2017-08-29T05:02:39.417Z,17.00
2017-08-29T05:05:07.717Z,17.00
2017-08-29T05:07:36.046Z,17.10
2017-08-29T05:10:04.339Z,17.10
2017-08-29T05:12:32.625Z,17.10
2017-08-29T05:15:00.966Z,17.20
2017-08-29T05:17:29.308Z,17.30
2017-08-29T05:19:57.638Z,17.40
2017-08-29T05:22:26.121Z,17.40
2017-08-29T05:24:54.445Z,17.40
2017-08-29T05:27:22.773Z,17.50
2017-08-29T05:29:51.141Z,17.50
2017-08-29T05:32:19.437Z,17.60
2017-08-29T05:34:47.737Z,17.70
2017-08-29T05:37:16.065Z,17.80
2017-08-29T05:39:44.400Z,17.80
2017-08-29T05:42:12.803Z,17.90
2017-08-29T05:44:41.172Z,18.00
2017-08-29T05:47:09.479Z,18.30
2017-08-29T05:49:37.802Z,19.50
2017-08-29T05:52:06.169Z,21.20
2017-08-29T05:54:34.484Z,22.60
2017-08-29T05:57:02.807Z,23.80
2017-08-29T05:59:31.150Z,24.90
2017-08-29T06:01:59.450Z,25.80
2017-08-29T06:04:27.752Z,26.30
2017-08-29T06:06:56.093Z,26.70
2017-08-29T06:09:24.425Z,27.10
2017-08-29T06:11:52.730Z,27.70
2017-08-29T06:14:21.073Z,28.20
2017-08-29T06:16:49.414Z,28.90
2017-08-29T06:19:17.752Z,29.20
2017-08-29T06:21:46.042Z,29.70
2017-08-29T06:24:14.374Z,30.00
2017-08-29T06:26:42.677Z,30.20
2017-08-29T06:29:10.973Z,30.50
2017-08-29T06:31:39.376Z,30.70
2017-08-29T06:34:07.715Z,31.00
2017-08-29T06:36:36.005Z,31.20
2017-08-29T06:39:04.349Z,31.50
2017-08-29T06:41:32.649Z,31.40
2017-08-29T06:44:00.951Z,31.60
2017-08-29T06:46:29.285Z,31.70
2017-08-29T06:48:57.631Z,31.80
2017-08-29T06:51:25.956Z,32.10
2017-08-29T06:53:54.299Z,32.40
2017-08-29T06:56:22.593Z,32.60
2017-08-29T06:58:50.906Z,32.80
2017-08-29T07:01:19.231Z,33.00
2017-08-29T07:03:47.530Z,33.10
2017-08-29T07:06:15.875Z,33.30
2017-08-29T07:08:44.271Z,33.60
2017-08-29T07:11:12.596Z,33.50
2017-08-29T07:13:40.904Z,33.70
2017-08-29T07:16:09.259Z,33.70
2017-08-29T07:18:37.609Z,33.80
2017-08-29T07:21:05.915Z,33.90
2017-08-29T07:23:34.255Z,34.00
2017-08-29T07:26:02.574Z,34.30
2017-08-29T07:28:30.886Z,34.30
2017-08-29T07:30:59.260Z,34.20
2017-08-29T07:33:27.569Z,34.40
2017-08-29T07:38:35.193Z,34.70
2017-08-29T07:41:03.496Z,35.00
2017-08-29T07:43:31.801Z,35.00
2017-08-29T07:46:00.140Z,35.20
2017-08-29T07:48:28.441Z,35.50
2017-08-29T07:50:56.743Z,35.30
2017-08-29T07:53:25.106Z,35.10
2017-08-29T07:55:53.421Z,35.20
2017-08-29T07:58:21.727Z,35.10
2017-08-29T08:00:50.073Z,35.20
2017-08-29T08:03:18.375Z,35.40
2017-08-29T08:05:46.677Z,35.40
2017-08-29T08:08:14.993Z,35.40
2017-08-29T08:10:43.295Z,35.40
2017-08-29T08:13:11.669Z,35.40
2017-08-29T08:15:40.000Z,35.10
2017-08-29T08:18:08.302Z,34.90
2017-08-29T08:20:36.653Z,34.90
2017-08-29T08:23:04.992Z,34.60
2017-08-29T08:25:33.306Z,34.70
2017-08-29T08:28:01.678Z,34.60
2017-08-29T08:30:29.980Z,34.80
2017-08-29T08:32:58.276Z,34.60
2017-08-29T08:35:26.611Z,34.70
2017-08-29T08:37:54.941Z,34.30
2017-08-29T08:40:23.265Z,34.20
2017-08-29T08:42:51.603Z,34.10
2017-08-29T08:45:19.909Z,34.20
2017-08-29T08:47:48.234Z,34.20
2017-08-29T08:50:16.634Z,34.00
2017-08-29T08:52:44.947Z,33.90
2017-08-29T08:55:13.259Z,33.90
2017-08-29T08:57:41.599Z,33.90
2017-08-29T09:00:09.897Z,33.70
2017-08-29T09:02:38.195Z,33.80
2017-08-29T09:05:06.531Z,33.60
2017-08-29T09:07:34.825Z,33.30
2017-08-29T09:10:03.133Z,33.20
2017-08-29T09:12:31.501Z,33.20
2017-08-29T09:14:59.797Z,33.20
2017-08-29T09:17:28.097Z,32.80
2017-08-29T09:19:56.430Z,32.70
2017-08-29T09:22:24.730Z,32.70
2017-08-29T09:24:53.035Z,32.60
2017-08-29T09:27:21.402Z,32.60
2017-08-29T09:29:49.725Z,32.80
2017-08-29T09:32:18.033Z,32.90
2017-08-29T09:34:46.456Z,33.00
2017-08-29T09:37:14.758Z,32.90
2017-08-29T09:39:43.053Z,32.90
2017-08-29T09:42:11.426Z,33.00
2017-08-29T09:44:39.759Z,32.80
2017-08-29T09:47:08.106Z,32.60
2017-08-29T09:49:36.474Z,32.50
2017-08-29T09:52:04.778Z,32.70
2017-08-29T09:54:33.098Z,32.40
2017-08-29T09:57:01.453Z,32.30
2017-08-29T09:59:29.765Z,32.30
2017-08-29T10:01:58.066Z,32.70
2017-08-29T10:04:26.429Z,33.10
2017-08-29T10:06:54.737Z,33.30
2017-08-29T10:09:23.027Z,33.40
2017-08-29T10:11:51.373Z,33.30
2017-08-29T10:14:19.671Z,32.90
2017-08-29T10:16:47.979Z,33.00
2017-08-29T10:19:16.313Z,32.90
2017-08-29T10:21:44.625Z,33.00
2017-08-29T10:24:12.931Z,32.70
2017-08-29T10:26:41.272Z,32.30
2017-08-29T10:29:09.584Z,32.10
2017-08-29T10:31:37.879Z,31.90
2017-08-29T10:34:06.214Z,31.80
2017-08-29T10:36:34.527Z,32.00
2017-08-29T10:39:02.816Z,32.20
2017-08-29T10:41:31.150Z,32.30
2017-08-29T10:43:59.478Z,32.20
2017-08-29T10:46:27.784Z,32.00
2017-08-29T10:48:56.120Z,31.90
2017-08-29T10:51:24.424Z,32.00
2017-08-29T10:53:52.726Z,31.90
2017-08-29T10:56:21.064Z,31.90
2017-08-29T10:58:49.363Z,31.70
2017-08-29T11:01:17.658Z,31.60
2017-08-29T11:03:46.018Z,31.40
2017-08-29T11:06:14.328Z,31.10
2017-08-29T11:08:42.633Z,30.90
2017-08-29T11:11:10.975Z,30.90
2017-08-29T11:13:39.288Z,31.00
2017-08-29T11:16:07.592Z,31.10
2017-08-29T11:18:35.928Z,31.50
2017-08-29T11:21:04.313Z,31.70
2017-08-29T11:23:32.624Z,31.50
2017-08-29T11:26:00.993Z,31.30
2017-08-29T11:28:29.289Z,31.40
2017-08-29T11:30:57.582Z,31.60
2017-08-29T11:33:25.922Z,31.60
2017-08-29T11:35:54.254Z,31.10
2017-08-29T11:38:22.583Z,31.00
2017-08-29T11:40:50.917Z,31.00
2017-08-29T11:43:19.228Z,31.00
2017-08-29T11:45:47.537Z,31.10
2017-08-29T11:48:15.883Z,31.20
2017-08-29T11:50:44.190Z,31.00
2017-08-29T11:53:12.512Z,30.80
2017-08-29T11:55:40.871Z,30.90
2017-08-29T11:58:09.184Z,30.50
2017-08-29T12:00:37.497Z,30.20
2017-08-29T12:03:05.890Z,30.10
2017-08-29T12:05:34.225Z,30.00
2017-08-29T12:08:02.530Z,29.70
2017-08-29T12:10:30.878Z,29.70
2017-08-29T12:12:59.183Z,29.90
2017-08-29T12:15:27.477Z,30.10
2017-08-29T12:17:55.826Z,30.10
2017-08-29T12:20:24.192Z,30.40
2017-08-29T12:22:52.493Z,30.40
2017-08-29T12:25:20.830Z,30.40
2017-08-29T12:27:49.155Z,30.40
2017-08-29T12:30:17.470Z,30.20
2017-08-29T12:32:45.803Z,29.90
2017-08-29T12:35:14.099Z,29.90
2017-08-29T12:37:42.406Z,29.80
2017-08-29T12:40:10.752Z,29.70
2017-08-29T12:42:39.060Z,29.60
2017-08-29T12:45:07.403Z,29.60
2017-08-29T12:47:35.737Z,29.60
2017-08-29T12:50:04.048Z,29.80
2017-08-29T12:52:32.364Z,29.90
2017-08-29T12:55:00.711Z,30.10
2017-08-29T12:57:29.009Z,30.00
2017-08-29T12:59:57.305Z,30.10
2017-08-29T13:02:25.652Z,30.10
2017-08-29T13:04:53.987Z,30.00
2017-08-29T13:07:22.290Z,30.00
2017-08-29T13:09:50.630Z,30.20
2017-08-29T13:12:18.941Z,30.00
2017-08-29T13:14:47.242Z,30.00
2017-08-29T13:17:15.588Z,30.20
2017-08-29T13:19:43.892Z,30.10
2017-08-29T13:22:12.218Z,30.20
2017-08-29T13:24:40.577Z,30.20
2017-08-29T13:27:08.882Z,30.20
2017-08-29T13:29:37.179Z,30.20
2017-08-29T13:32:05.806Z,30.20
2017-08-29T13:34:34.115Z,30.20
2017-08-29T13:37:02.413Z,30.20
2017-08-29T13:39:30.751Z,30.20
2017-08-29T13:41:59.049Z,30.40
2017-08-29T13:44:27.352Z,30.40
2017-08-29T13:46:55.680Z,30.50
2017-08-29T13:49:23.994Z,30.50
2017-08-29T13:51:52.299Z,30.40
2017-08-29T13:54:20.631Z,30.60
2017-08-29T13:56:48.925Z,30.60
2017-08-29T13:59:17.225Z,30.50
2017-08-29T14:01:45.578Z,30.60
2017-08-29T14:04:13.878Z,30.80
2017-08-29T14:06:42.198Z,30.70
2017-08-29T14:09:10.546Z,30.70
2017-08-29T14:11:38.856Z,30.60
2017-08-29T14:14:07.159Z,30.80
2017-08-29T14:16:35.489Z,30.60
2017-08-29T14:19:03.797Z,30.80
2017-08-29T14:21:32.129Z,30.80
2017-08-29T14:24:01.191Z,31.20
2017-08-29T14:26:29.504Z,31.10
2017-08-29T14:28:57.841Z,31.00
2017-08-29T14:31:26.136Z,30.90
2017-08-29T14:33:54.436Z,30.90
2017-08-29T14:36:22.774Z,30.80
2017-08-29T14:38:51.073Z,30.80
2017-08-29T14:41:19.372Z,30.60
2017-08-29T14:43:47.748Z,30.60
2017-08-29T14:46:16.081Z,30.50
2017-08-29T14:49:02.253Z,30.30
2017-08-29T14:51:30.556Z,30.20
2017-08-29T14:53:58.867Z,30.00
2017-08-29T14:56:27.186Z,29.80
2017-08-29T14:58:55.501Z,29.80
2017-08-29T15:01:23.922Z,29.90
2017-08-29T15:03:52.238Z,29.90
2017-08-29T15:06:20.562Z,30.00
2017-08-29T15:08:48.997Z,29.90
2017-08-29T15:11:17.289Z,29.90
2017-08-29T15:13:45.614Z,29.80
2017-08-29T15:16:13.958Z,29.90
2017-08-29T15:18:42.254Z,29.90
2017-08-29T15:21:10.592Z,29.70
2017-08-29T15:23:38.958Z,29.60
2017-08-29T15:26:07.255Z,29.50
2017-08-29T15:28:35.561Z,29.50
2017-08-29T15:31:03.917Z,29.40
2017-08-29T15:33:32.227Z,29.40
2017-08-29T15:36:00.525Z,29.30
2017-08-29T15:38:28.861Z,29.30
2017-08-29T15:40:57.183Z,29.20
2017-08-29T15:43:25.506Z,29.20
2017-08-29T15:45:53.836Z,29.10
2017-08-29T15:48:22.134Z,29.10
2017-08-29T15:50:50.486Z,29.10
2017-08-29T15:53:18.778Z,29.00
2017-08-29T15:55:47.109Z,29.00
2017-08-29T15:58:15.491Z,29.10
2017-08-29T16:00:43.789Z,29.10
2017-08-29T16:03:12.148Z,29.10
2017-08-29T16:05:40.504Z,29.00
2017-08-29T16:08:08.832Z,29.10
2017-08-29T16:10:37.134Z,29.10
2017-08-29T16:13:05.466Z,29.10
2017-08-29T16:15:34.333Z,29.00
2017-08-29T16:18:02.664Z,28.90
2017-08-29T16:20:31.025Z,29.00
2017-08-29T16:22:59.320Z,28.90
2017-08-29T16:25:27.635Z,28.90
2017-08-29T16:27:56.000Z,28.90
2017-08-29T16:30:24.326Z,28.90
2017-08-29T16:32:52.619Z,28.80
2017-08-29T16:35:20.956Z,28.80
2017-08-29T16:37:49.254Z,28.70
2017-08-29T16:40:17.580Z,28.60
2017-08-29T16:42:45.917Z,28.60
2017-08-29T16:45:14.316Z,28.50
2017-08-29T16:47:42.625Z,28.40
2017-08-29T16:50:10.968Z,28.40
2017-08-29T16:52:39.267Z,28.40
2017-08-29T16:55:07.571Z,28.40
2017-08-29T16:57:35.916Z,28.40
2017-08-29T17:00:04.229Z,28.40
2017-08-29T17:02:32.529Z,28.30
2017-08-29T17:05:00.876Z,28.40
2017-08-29T17:07:29.177Z,28.30
2017-08-29T17:09:57.513Z,28.30
2017-08-29T17:12:25.983Z,28.30
2017-08-29T17:14:54.338Z,28.20
2017-08-29T17:17:22.659Z,28.10
2017-08-29T17:19:51.013Z,28.10
2017-08-29T17:22:19.327Z,28.00
2017-08-29T17:24:47.622Z,27.90
2017-08-29T17:27:16.013Z,27.80
2017-08-29T17:29:44.315Z,27.70
2017-08-29T17:32:12.615Z,27.70
2017-08-29T17:34:40.963Z,27.80
2017-08-29T17:37:09.267Z,27.70
2017-08-29T17:39:37.596Z,27.60
2017-08-29T17:42:05.995Z,27.60
2017-08-29T17:44:34.297Z,27.50
2017-08-29T17:47:02.611Z,27.40
2017-08-29T17:49:31.006Z,27.20
2017-08-29T17:51:59.309Z,27.10
2017-08-29T17:54:27.637Z,27.00
2017-08-29T17:56:56.019Z,26.90
2017-08-29T17:59:24.322Z,26.80
2017-08-29T18:01:52.618Z,26.70
2017-08-29T18:04:21.851Z,26.70
2017-08-29T18:06:50.157Z,26.60
2017-08-29T18:09:18.457Z,26.50
2017-08-29T18:11:46.851Z,26.40
2017-08-29T18:14:15.148Z,26.30
2017-08-29T18:16:43.483Z,26.20
2017-08-29T18:19:11.848Z,26.10
2017-08-29T18:21:40.157Z,26.00
2017-08-29T18:24:08.471Z,25.90
2017-08-29T18:26:36.862Z,25.90
2017-08-29T18:29:05.161Z,25.90
2017-08-29T18:31:33.468Z,25.80
2017-08-29T18:34:01.855Z,25.70
2017-08-29T18:36:30.152Z,25.70
2017-08-29T18:38:58.461Z,25.60
2017-08-29T18:41:26.802Z,25.60
2017-08-29T18:43:55.232Z,25.50
2017-08-29T18:46:23.562Z,25.50
2017-08-29T18:48:51.954Z,25.50
2017-08-29T18:51:21.037Z,25.50
2017-08-29T18:53:50.649Z,25.40
2017-08-29T18:56:18.965Z,25.30
2017-08-29T18:58:47.280Z,25.20
2017-08-29T19:01:15.645Z,25.10
2017-08-29T19:03:43.949Z,25.00
2017-08-29T19:06:12.249Z,24.90
2017-08-29T19:08:40.611Z,24.80
2017-08-29T19:11:08.971Z,24.70
2017-08-29T19:13:37.293Z,24.70
2017-08-29T19:16:05.641Z,24.60
2017-08-29T19:18:33.949Z,24.50
2017-08-29T19:21:02.300Z,24.40
2017-08-29T19:23:30.663Z,24.40
2017-08-29T19:25:59.053Z,24.30
2017-08-29T19:28:27.362Z,24.30
2017-08-29T19:30:55.714Z,24.30
2017-08-29T19:33:24.010Z,24.20
2017-08-29T19:35:52.407Z,24.20
2017-08-29T19:38:21.452Z,24.10
2017-08-29T19:40:49.757Z,24.00
2017-08-29T19:43:18.101Z,24.00
2017-08-29T19:45:46.417Z,24.00
2017-08-29T19:48:14.761Z,24.00
2017-08-29T19:50:43.093Z,24.00
2017-08-29T19:53:11.399Z,23.90
2017-08-29T19:55:39.750Z,23.90
2017-08-29T19:58:08.110Z,23.80
2017-08-29T20:00:36.408Z,23.80
2017-08-29T20:03:04.771Z,23.70
2017-08-29T20:05:33.589Z,23.60
2017-08-29T20:08:01.901Z,23.60
2017-08-29T20:10:30.209Z,23.50
2017-08-29T20:12:58.596Z,23.50
2017-08-29T20:15:26.907Z,23.50
2017-08-29T20:17:55.210Z,23.40
2017-08-29T20:20:24.161Z,23.40
2017-08-29T20:22:52.533Z,23.40
2017-08-29T20:25:20.924Z,23.40
2017-08-29T20:27:49.345Z,23.40
2017-08-29T20:30:17.638Z,23.40
2017-08-29T20:32:46.005Z,23.40
2017-08-29T20:35:14.316Z,23.40
2017-08-29T20:37:42.618Z,23.40
2017-08-29T20:40:10.984Z,23.30
2017-08-29T20:42:39.288Z,23.40
2017-08-29T20:45:07.585Z,23.30
2017-08-29T20:47:35.950Z,23.30
2017-08-29T20:50:04.256Z,23.20
2017-08-29T20:52:32.609Z,23.20
2017-08-29T20:55:01.675Z,23.20
2017-08-29T20:57:29.985Z,23.20
2017-08-29T20:59:58.351Z,23.10
2017-08-29T21:02:26.657Z,23.10
2017-08-29T21:04:55.012Z,23.10
2017-08-29T21:07:24.293Z,23.10
2017-08-29T21:09:53.134Z,23.10
2017-08-29T21:12:22.393Z,23.00
2017-08-29T21:14:50.748Z,23.00
2017-08-29T21:17:19.124Z,22.90
2017-08-29T21:19:47.423Z,22.90
2017-08-29T21:22:15.735Z,22.80
2017-08-29T21:24:44.107Z,22.80
2017-08-29T21:27:12.406Z,22.80
2017-08-29T21:29:40.702Z,22.70
2017-08-29T21:32:09.024Z,22.70
2017-08-29T21:34:37.376Z,22.70
2017-08-29T21:37:05.698Z,22.70
2017-08-29T21:39:34.009Z,22.60
2017-08-29T21:42:02.350Z,22.60
2017-08-29T21:44:30.665Z,22.60
2017-08-29T21:46:59.005Z,22.60
2017-08-29T21:49:27.306Z,22.50
2017-08-29T21:51:55.695Z,22.50
2017-08-29T21:54:24.033Z,22.50
2017-08-29T21:56:52.346Z,22.40
2017-08-29T21:59:20.647Z,22.30
2017-08-29T22:01:49.015Z,22.30
2017-08-29T22:04:17.387Z,22.30
2017-08-29T22:06:45.744Z,22.20
2017-08-29T22:09:14.110Z,22.20
2017-08-29T22:11:42.406Z,22.20
2017-08-29T22:14:11.107Z,22.10
2017-08-29T22:16:39.485Z,22.20
2017-08-29T22:19:07.841Z,22.10
2017-08-29T22:21:36.145Z,22.10
2017-08-29T22:24:04.489Z,22.10
2017-08-29T22:26:32.824Z,22.00
2017-08-29T22:29:01.233Z,22.00
2017-08-29T22:31:29.546Z,22.00
2017-08-29T22:33:57.854Z,22.00
2017-08-29T22:36:26.230Z,22.00
2017-08-29T22:38:54.557Z,21.90
2017-08-29T22:41:22.898Z,21.90
2017-08-29T22:43:51.196Z,21.80
2017-08-29T22:46:19.506Z,21.80
2017-08-29T22:48:47.870Z,21.80
2017-08-29T22:51:16.164Z,21.80
2017-08-29T22:53:44.489Z,21.70
2017-08-29T22:56:12.841Z,21.70
2017-08-29T22:58:41.148Z,21.70
2017-08-29T23:01:09.484Z,21.70
2017-08-29T23:03:37.813Z,21.70
2017-08-29T23:06:06.149Z,21.60
2017-08-29T23:08:34.439Z,21.60
2017-08-29T23:11:02.764Z,21.50
2017-08-29T23:13:31.263Z,21.50
2017-08-29T23:15:59.562Z,21.50
2017-08-29T23:18:27.898Z,21.50
2017-08-29T23:20:56.190Z,21.40
2017-08-29T23:23:24.494Z,21.40
2017-08-29T23:25:52.825Z,21.40
2017-08-29T23:28:21.131Z,21.40
2017-08-29T23:30:49.458Z,21.30
2017-08-29T23:33:17.761Z,21.30
2017-08-29T23:35:46.093Z,21.30
2017-08-29T23:38:14.472Z,21.30
2017-08-29T23:40:42.789Z,21.30
2017-08-29T23:43:11.126Z,21.30
2017-08-29T23:45:39.502Z,21.20
2017-08-29T23:48:07.845Z,21.20
2017-08-29T23:50:36.177Z,21.20
2017-08-29T23:53:04.488Z,21.20
2017-08-29T23:55:32.790Z,21.10
2017-08-29T23:58:01.119Z,21.10
